メインページ
METAR-TAF:

METAR-TAF

空港 :

ジブチ, ジブチ

ジブチ国際空港

緯度: 11-33N, 経度: 043-10E, 海抜: 49m

現時点の気象観測

当レポートは1時間46分前の08:00(UTC)に作成
の風 11kt
気温 30°C
湿度 66%
気圧 1012 hPa
高度2000ftの雲は散在している

METAR: HDAM 250800Z 08011KT 9/9 SCT020 30/23 Q1012

時間: 12:46 (09:46 UTC)

予報

当レポートは4時間46分前の05:00(UTC)に作成
予報は25日の 06時(UTC)から 26日の 06時(UTC)まで有効
の風 10kt
視程10km以上
高度2000ftの雲は散在している
高度3000ftの雲は散在している
25日の 12時(UTC)から 25日の 15時(UTC)まで徐々に
高度2300ftの雲は散在している
25日の 15時(UTC)から 25日の 18時(UTC)まで徐々に
の風 kt
高度2000ftの雲はほとんどない
高度2000ftの雲は散在している
高度3000ftの雲は散在している

TAF: HDAM 250500Z 2506/2606 10010KT 9999 SCT020 SCT030 BECMG 2512/2515 SCT023 BECMG 2515/2518 VRB03KT FEW020 BCMG 2600/2606 00000KT SCT020 SCT030

4,000以上の空港の気象観測と天気予報(METAR報とTAF報)

利用可能な観測所は地図上に黄色い丸と赤い丸で示す。

丸の上にカーソルを重ねると観測所名を参照できる。

次にクリックすると気象観測と天気予報を参照できる。

マップの切り替え:黒色「×」印の緑ボタンをクリックして拡大、「-」印の緑ボタンをクリックして縮小、緑色の三角印をクリックして隣りの地図に切り替え


METAR-TAF: